createdAt,value
2018-11-28T00:02:25.132Z,-0.20
2018-11-28T00:04:54.486Z,-0.06
2018-11-28T00:07:23.828Z,0.04
2018-11-28T00:09:53.170Z,-0.23
2018-11-28T00:12:22.546Z,-0.39
2018-11-28T00:14:51.934Z,-0.03
2018-11-28T00:17:21.322Z,-0.27
2018-11-28T00:19:50.717Z,-0.12
2018-11-28T00:22:20.097Z,-0.41
2018-11-28T00:24:49.539Z,-0.01
2018-11-28T00:27:18.896Z,-0.23
2018-11-28T00:29:48.277Z,-0.12
2018-11-28T00:32:17.671Z,-0.47
2018-11-28T00:34:46.983Z,-0.28
2018-11-28T00:37:16.377Z,-0.21
2018-11-28T00:39:45.767Z,-0.36
2018-11-28T00:42:17.980Z,-0.43
2018-11-28T00:44:47.371Z,-0.44
2018-11-28T00:47:16.756Z,-0.66
2018-11-28T00:49:46.155Z,-0.66
2018-11-28T00:52:15.570Z,-0.38
2018-11-28T00:54:45.485Z,-0.48
2018-11-28T00:57:14.857Z,-0.49
2018-11-28T00:59:44.244Z,-0.65
2018-11-28T01:02:13.700Z,-0.85
2018-11-28T01:04:43.040Z,-0.79
2018-11-28T01:07:13.928Z,-0.56
2018-11-28T01:09:43.297Z,-0.52
2018-11-28T01:12:12.730Z,-0.73
2018-11-28T01:14:42.144Z,-0.84
2018-11-28T01:17:11.564Z,-0.66
2018-11-28T01:19:40.956Z,-0.65
2018-11-28T01:22:10.295Z,-0.61
2018-11-28T01:24:39.668Z,-0.60
2018-11-28T01:27:09.033Z,-0.27
2018-11-28T01:29:38.422Z,-0.40
2018-11-28T01:32:07.867Z,-0.46
2018-11-28T01:34:37.233Z,-0.57
2018-11-28T01:37:06.673Z,-0.78
2018-11-28T01:39:36.003Z,-0.61
2018-11-28T01:42:05.576Z,-0.65
2018-11-28T01:44:34.984Z,-0.59
2018-11-28T01:47:04.356Z,-0.69
2018-11-28T01:49:33.733Z,-0.90
2018-11-28T01:52:03.187Z,-1.15
2018-11-28T01:54:32.537Z,-0.91
2018-11-28T01:57:01.877Z,-0.95
2018-11-28T01:59:31.284Z,-0.82
2018-11-28T02:02:00.694Z,-0.96
2018-11-28T02:04:30.073Z,-0.93
2018-11-28T02:06:59.483Z,-0.77
2018-11-28T02:09:28.963Z,-1.01
2018-11-28T02:11:58.328Z,-0.86
2018-11-28T02:14:27.676Z,-0.89
2018-11-28T02:16:57.062Z,-0.93
2018-11-28T02:19:26.397Z,-0.92
2018-11-28T02:21:55.784Z,-1.01
2018-11-28T02:24:25.167Z,-1.19
2018-11-28T02:26:54.670Z,-1.29
2018-11-28T02:29:24.405Z,-1.06
2018-11-28T02:31:53.751Z,-0.93
2018-11-28T02:34:23.262Z,-1.16
2018-11-28T02:36:52.965Z,-1.18
2018-11-28T02:39:22.482Z,-1.07
2018-11-28T02:41:52.002Z,-1.00
2018-11-28T02:44:21.577Z,-1.07
2018-11-28T02:46:50.940Z,-1.05
2018-11-28T02:49:20.273Z,-1.17
2018-11-28T02:51:49.663Z,-1.18
2018-11-28T02:54:19.020Z,-1.32
2018-11-28T02:56:48.390Z,-1.30
2018-11-28T02:59:17.755Z,-1.23
2018-11-28T03:01:47.160Z,-1.31
2018-11-28T03:04:16.528Z,-1.42
2018-11-28T03:06:45.879Z,-1.51
2018-11-28T03:09:15.257Z,-1.52
2018-11-28T03:11:44.613Z,-1.55
2018-11-28T03:14:14.015Z,-1.49
2018-11-28T03:16:43.416Z,-1.52
2018-11-28T03:19:12.858Z,-1.60
2018-11-28T03:21:42.220Z,-1.65
2018-11-28T03:24:11.611Z,-1.50
2018-11-28T03:26:40.954Z,-1.47
2018-11-28T03:29:10.343Z,-1.48
2018-11-28T03:31:39.723Z,-1.45
2018-11-28T03:34:09.125Z,-1.34
2018-11-28T03:36:38.641Z,-1.04
2018-11-28T03:39:09.897Z,-1.13
2018-11-28T03:41:39.299Z,-1.07
2018-11-28T03:44:08.636Z,-0.89
2018-11-28T03:46:37.987Z,-1.03
2018-11-28T03:49:08.378Z,-1.43
2018-11-28T03:51:37.756Z,-1.59
2018-11-28T03:54:07.158Z,-1.69
2018-11-28T03:56:36.500Z,-1.75
2018-11-28T03:59:06.405Z,-1.78
2018-11-28T04:01:36.774Z,-1.82
2018-11-28T04:04:06.236Z,-1.72
2018-11-28T04:06:35.666Z,-1.78
2018-11-28T04:09:08.206Z,-1.71
2018-11-28T04:11:37.604Z,-1.53
2018-11-28T04:14:06.977Z,-1.74
2018-11-28T04:16:36.336Z,-1.34
2018-11-28T04:19:06.337Z,-1.60
2018-11-28T04:21:35.735Z,-1.31
2018-11-28T04:24:05.129Z,-1.41
2018-11-28T04:26:34.467Z,-1.46
2018-11-28T04:29:03.857Z,-1.60
2018-11-28T04:31:33.224Z,-1.77
2018-11-28T04:34:02.568Z,-1.77
2018-11-28T04:36:31.932Z,-1.88
2018-11-28T04:39:01.407Z,-1.99
2018-11-28T04:41:30.783Z,-2.03
2018-11-28T04:44:00.171Z,-1.83
2018-11-28T04:46:29.537Z,-1.99
2018-11-28T04:48:58.940Z,-1.97
2018-11-28T04:51:28.321Z,-1.92
2018-11-28T04:53:57.661Z,-2.00
2018-11-28T04:56:27.067Z,-2.03
2018-11-28T04:58:56.422Z,-1.73
2018-11-28T05:01:25.806Z,-1.91
2018-11-28T05:03:55.208Z,-2.11
2018-11-28T05:07:30.742Z,-2.26
2018-11-28T05:10:00.438Z,-2.30
2018-11-28T05:12:29.824Z,-2.38
2018-11-28T05:14:59.201Z,-2.36
2018-11-28T05:17:28.597Z,-2.37
2018-11-28T05:19:58.067Z,-2.32
2018-11-28T05:22:27.435Z,-2.34
2018-11-28T05:24:58.064Z,-2.52
2018-11-28T05:27:27.435Z,-2.44
2018-11-28T05:29:56.829Z,-2.41
2018-11-28T05:32:27.152Z,-2.39
2018-11-28T05:34:56.487Z,-2.37
2018-11-28T05:37:25.858Z,-2.37
2018-11-28T05:39:55.241Z,-2.46
2018-11-28T05:42:24.626Z,-2.39
2018-11-28T05:49:51.940Z,-2.34
2018-11-28T05:52:21.345Z,-2.37
2018-11-28T05:54:51.081Z,-2.41
2018-11-28T05:57:20.455Z,-2.41
2018-11-28T05:59:49.814Z,-2.25
2018-11-28T06:02:19.212Z,-2.29
2018-11-28T06:04:48.564Z,-2.29
2018-11-28T06:12:17.628Z,-2.42
2018-11-28T06:14:46.974Z,-2.47
2018-11-28T06:17:16.514Z,-2.45
2018-11-28T06:19:46.033Z,-2.48
2018-11-28T06:22:15.437Z,-2.32
2018-11-28T06:24:44.820Z,-2.49
2018-11-28T06:27:14.218Z,-2.50
2018-11-28T06:29:43.580Z,-2.66
2018-11-28T06:32:12.977Z,-2.75
2018-11-28T06:34:42.385Z,-2.69
2018-11-28T06:37:11.752Z,-2.71
2018-11-28T06:39:41.128Z,-2.82
2018-11-28T06:42:10.513Z,-2.72
2018-11-28T06:44:39.853Z,-2.62
2018-11-28T06:47:09.212Z,-2.78
2018-11-28T06:49:38.611Z,-2.83
2018-11-28T06:52:07.966Z,-2.84
2018-11-28T06:54:38.327Z,-2.84
2018-11-28T06:57:07.680Z,-2.73
2018-11-28T06:59:38.391Z,-2.71
2018-11-28T07:02:06.580Z,-2.68
2018-11-28T07:04:35.933Z,-2.53
2018-11-28T07:07:06.632Z,-2.41
2018-11-28T07:09:35.977Z,-2.41
2018-11-28T07:12:05.371Z,-2.28
2018-11-28T07:14:34.765Z,-2.19
2018-11-28T07:17:04.122Z,-2.08
2018-11-28T07:19:33.463Z,-2.06
2018-11-28T07:22:03.535Z,-2.11
2018-11-28T07:24:32.329Z,-1.85
2018-11-28T07:27:01.671Z,-1.66
2018-11-28T07:29:31.284Z,-1.16
2018-11-28T07:32:00.643Z,-0.70
2018-11-28T07:34:30.016Z,0.29
2018-11-28T07:36:59.352Z,0.39
2018-11-28T07:39:28.668Z,0.77
2018-11-28T07:41:58.004Z,1.51
2018-11-28T07:44:27.539Z,2.93
2018-11-28T07:46:56.892Z,5.04
2018-11-28T07:49:26.207Z,6.75
2018-11-28T07:51:55.819Z,7.47
2018-11-28T07:54:25.235Z,8.19
2018-11-28T07:56:54.531Z,8.80
2018-11-28T07:59:23.894Z,9.12
2018-11-28T08:01:53.375Z,9.22
2018-11-28T08:04:22.829Z,9.05
2018-11-28T08:06:52.009Z,10.13
2018-11-28T08:09:21.359Z,10.41
2018-11-28T08:11:50.656Z,9.88
2018-11-28T08:14:20.064Z,10.50
2018-11-28T08:16:49.403Z,10.49
2018-11-28T08:19:23.876Z,9.70
2018-11-28T08:21:48.197Z,9.36
2018-11-28T08:24:17.574Z,9.83
2018-11-28T08:26:46.924Z,8.35
2018-11-28T08:29:16.360Z,7.25
2018-11-28T08:31:45.704Z,7.34
2018-11-28T08:34:15.007Z,7.18
2018-11-28T08:36:44.356Z,7.19
2018-11-28T08:39:13.693Z,7.00
2018-11-28T08:41:43.067Z,6.67
2018-11-28T08:44:12.331Z,7.27
2018-11-28T08:46:41.704Z,6.89
2018-11-28T08:49:11.070Z,6.90
2018-11-28T08:51:40.409Z,6.44
2018-11-28T08:54:09.833Z,6.33
2018-11-28T08:56:39.122Z,5.27
2018-11-28T08:59:08.455Z,4.05
2018-11-28T09:01:37.747Z,4.05
2018-11-28T09:04:07.257Z,3.39
2018-11-28T09:06:36.564Z,2.92
2018-11-28T09:09:07.807Z,3.93
2018-11-28T09:11:38.284Z,3.95
2018-11-28T09:14:07.620Z,3.57
2018-11-28T09:16:36.980Z,3.19
2018-11-28T09:19:06.356Z,3.33
2018-11-28T09:21:35.691Z,2.48
2018-11-28T09:24:06.899Z,2.55
2018-11-28T09:26:36.298Z,3.20
2018-11-28T09:29:05.919Z,4.46
2018-11-28T09:31:35.298Z,4.57
2018-11-28T09:34:04.640Z,3.76
2018-11-28T09:36:34.760Z,3.61
2018-11-28T09:39:05.373Z,3.19
2018-11-28T09:41:34.727Z,3.83
2018-11-28T09:44:04.066Z,3.99
2018-11-28T09:46:33.583Z,3.56
2018-11-28T09:49:03.935Z,3.67
2018-11-28T09:51:33.277Z,3.41
2018-11-28T09:54:02.629Z,3.38
2018-11-28T09:56:31.979Z,3.34
2018-11-28T09:59:01.300Z,3.09
2018-11-28T10:06:28.711Z,2.14
2018-11-28T10:08:58.046Z,2.08
2018-11-28T10:11:27.412Z,2.12
2018-11-28T10:13:56.800Z,2.52
2018-11-28T10:16:26.149Z,2.56
2018-11-28T10:18:55.475Z,2.39
2018-11-28T10:21:24.884Z,2.27
2018-11-28T10:23:54.800Z,2.96
2018-11-28T10:26:24.176Z,3.27
2018-11-28T10:28:53.519Z,3.37
2018-11-28T10:31:22.946Z,2.89
2018-11-28T10:33:52.293Z,2.46
2018-11-28T10:36:22.884Z,2.23
2018-11-28T10:38:52.234Z,2.48
2018-11-28T10:41:21.604Z,2.07
2018-11-28T10:43:50.952Z,2.35
2018-11-28T10:46:20.305Z,2.33
2018-11-28T10:48:49.672Z,2.73
2018-11-28T10:51:18.996Z,3.19
2018-11-28T10:53:48.324Z,2.80
2018-11-28T10:56:17.739Z,2.63
2018-11-28T10:58:47.081Z,3.53
2018-11-28T11:01:21.653Z,5.32
2018-11-28T11:03:55.346Z,6.15
2018-11-28T11:06:29.939Z,6.27
2018-11-28T11:09:04.378Z,5.27
2018-11-28T11:11:38.672Z,5.23
2018-11-28T11:14:13.267Z,5.80
2018-11-28T11:16:42.565Z,4.20
2018-11-28T11:19:11.891Z,4.07
2018-11-28T11:21:41.264Z,3.15
2018-11-28T11:24:10.633Z,3.22
2018-11-28T11:26:39.978Z,2.25
2018-11-28T11:29:09.376Z,2.07
2018-11-28T11:31:38.830Z,2.44
2018-11-28T11:34:08.212Z,2.51
2018-11-28T11:36:37.569Z,2.25
2018-11-28T11:39:08.330Z,2.51
2018-11-28T11:41:37.664Z,1.96
2018-11-28T11:44:06.996Z,1.90
2018-11-28T11:46:36.318Z,1.76
2018-11-28T11:49:05.988Z,2.05
2018-11-28T11:51:36.116Z,2.36
2018-11-28T11:54:05.677Z,1.87
2018-11-28T11:56:35.072Z,1.45
2018-11-28T11:59:04.412Z,1.49
2018-11-28T12:01:33.817Z,1.62
2018-11-28T12:04:04.200Z,1.61
2018-11-28T12:06:33.603Z,1.83
2018-11-28T12:09:03.364Z,1.59
2018-11-28T12:11:32.696Z,1.77
2018-11-28T12:14:02.035Z,2.01
2018-11-28T12:16:32.435Z,2.35
2018-11-28T12:19:01.787Z,1.95
2018-11-28T12:21:31.168Z,1.66
2018-11-28T12:24:00.523Z,1.55
2018-11-28T12:26:29.958Z,1.98
2018-11-28T12:29:00.526Z,1.85
2018-11-28T12:31:29.881Z,1.53
2018-11-28T12:33:59.292Z,1.26
2018-11-28T12:36:28.621Z,1.31
2018-11-28T12:38:58.061Z,2.02
2018-11-28T12:41:27.444Z,2.13
2018-11-28T12:43:56.846Z,2.21
2018-11-28T12:46:26.201Z,2.19
2018-11-28T12:48:55.576Z,2.49
2018-11-28T12:51:24.956Z,1.50
2018-11-28T12:53:54.324Z,1.35
2018-11-28T12:56:23.685Z,1.30
2018-11-28T12:58:53.004Z,1.64
2018-11-28T13:01:22.345Z,1.92
2018-11-28T13:03:51.675Z,2.11
2018-11-28T13:06:21.010Z,1.59
2018-11-28T13:08:50.373Z,2.17
2018-11-28T13:11:19.718Z,2.67
2018-11-28T13:13:49.077Z,2.22
2018-11-28T13:16:18.440Z,2.25
2018-11-28T13:18:47.829Z,2.17
2018-11-28T13:21:17.171Z,1.80
2018-11-28T13:23:46.580Z,1.48
2018-11-28T13:26:15.929Z,1.82
2018-11-28T13:28:45.298Z,1.68
2018-11-28T13:31:14.648Z,1.34
2018-11-28T13:33:44.004Z,1.27
2018-11-28T13:36:13.352Z,1.25
2018-11-28T13:38:42.708Z,1.57
2018-11-28T13:41:12.062Z,1.48
2018-11-28T13:43:41.368Z,1.60
2018-11-28T13:46:10.723Z,1.57
2018-11-28T13:48:40.067Z,1.64
2018-11-28T13:51:09.397Z,1.83
2018-11-28T13:53:38.752Z,1.78
2018-11-28T13:58:37.457Z,1.17
2018-11-28T14:01:07.141Z,1.15
2018-11-28T14:03:36.520Z,1.43
2018-11-28T14:06:06.273Z,1.30
2018-11-28T14:08:35.599Z,1.14
2018-11-28T14:11:05.503Z,1.19
2018-11-28T14:13:34.855Z,1.22
2018-11-28T14:16:04.235Z,0.98
2018-11-28T14:18:33.572Z,0.98
2018-11-28T14:21:02.936Z,0.81
2018-11-28T14:23:32.292Z,0.79
2018-11-28T14:26:01.689Z,0.73
2018-11-28T14:28:31.054Z,0.79
2018-11-28T14:31:00.452Z,1.05
2018-11-28T14:33:29.840Z,0.69
2018-11-28T14:35:59.176Z,0.86
2018-11-28T14:38:28.579Z,0.72
2018-11-28T14:43:26.140Z,0.77
2018-11-28T14:45:55.509Z,0.92
2018-11-28T14:48:24.920Z,0.93
2018-11-28T14:50:54.277Z,0.86
2018-11-28T14:53:23.645Z,0.56
2018-11-28T14:55:53.051Z,0.84
2018-11-28T14:58:22.463Z,0.91
2018-11-28T15:00:51.792Z,0.76
2018-11-28T15:03:21.687Z,0.65
2018-11-28T15:06:59.388Z,0.67
2018-11-28T15:09:36.126Z,0.96
2018-11-28T15:12:11.727Z,0.96
2018-11-28T15:14:39.612Z,0.84
2018-11-28T15:17:08.948Z,0.65
2018-11-28T15:19:39.599Z,0.58
2018-11-28T15:22:08.957Z,0.47
2018-11-28T15:24:38.393Z,0.58
2018-11-28T15:27:07.749Z,0.50
2018-11-28T15:29:37.060Z,0.36
2018-11-28T15:32:06.664Z,0.66
2018-11-28T15:34:36.000Z,0.65
2018-11-28T15:37:06.035Z,0.48
2018-11-28T15:39:35.368Z,0.53
2018-11-28T15:42:04.773Z,0.52
2018-11-28T15:44:35.150Z,0.37
2018-11-28T15:47:04.638Z,0.29
2018-11-28T15:49:33.985Z,0.29
2018-11-28T15:52:03.353Z,0.41
2018-11-28T15:54:32.694Z,0.36
2018-11-28T15:57:03.377Z,0.66
2018-11-28T15:59:32.712Z,0.46
2018-11-28T16:02:02.079Z,0.58
2018-11-28T16:04:31.397Z,0.56
2018-11-28T16:07:00.797Z,0.40
2018-11-28T16:09:35.514Z,0.34
2018-11-28T16:12:05.391Z,0.41
2018-11-28T16:14:34.745Z,0.28
2018-11-28T16:17:04.096Z,0.47
2018-11-28T16:19:33.461Z,0.68
2018-11-28T16:22:02.829Z,0.77
2018-11-28T16:29:29.523Z,0.78
2018-11-28T16:31:58.901Z,0.50
2018-11-28T16:34:29.342Z,0.32
2018-11-28T16:36:58.660Z,0.37
2018-11-28T16:39:28.647Z,0.29
2018-11-28T16:41:58.001Z,0.71
2018-11-28T16:44:27.334Z,0.61
2018-11-28T16:46:57.381Z,0.92
2018-11-28T16:49:26.695Z,0.44
2018-11-28T16:51:56.113Z,0.45
2018-11-28T16:54:25.477Z,0.80
2018-11-28T16:56:54.861Z,0.90
2018-11-28T16:59:30.662Z,0.79
2018-11-28T17:01:54.901Z,0.91
2018-11-28T17:04:24.277Z,1.00
2018-11-28T17:06:53.657Z,0.98
2018-11-28T17:09:23.037Z,0.72
2018-11-28T17:11:52.356Z,0.65
2018-11-28T17:14:21.723Z,0.44
2018-11-28T17:16:51.060Z,0.30
2018-11-28T17:19:20.412Z,0.64
2018-11-28T17:21:49.727Z,0.54
2018-11-28T17:24:19.045Z,0.45
2018-11-28T17:26:48.472Z,0.54
2018-11-28T17:29:17.823Z,0.48
2018-11-28T17:31:47.241Z,0.78
2018-11-28T17:34:16.584Z,0.63
2018-11-28T17:36:45.945Z,0.69
2018-11-28T17:39:15.578Z,0.94
2018-11-28T17:41:44.982Z,0.85
2018-11-28T17:44:14.349Z,0.77
2018-11-28T17:46:43.822Z,0.72
2018-11-28T17:49:14.081Z,0.80
2018-11-28T17:51:43.463Z,0.81
2018-11-28T17:54:12.792Z,0.87
2018-11-28T17:56:42.193Z,0.78
2018-11-28T17:59:11.601Z,0.76
2018-11-28T18:01:42.287Z,0.58
2018-11-28T18:04:11.667Z,0.63
2018-11-28T18:06:41.049Z,0.79
2018-11-28T18:09:11.920Z,0.87
2018-11-28T18:11:41.270Z,0.78
2018-11-28T18:14:10.814Z,0.58
2018-11-28T18:16:40.149Z,0.59
2018-11-28T18:19:09.551Z,0.31
2018-11-28T18:21:39.032Z,0.62
2018-11-28T18:24:08.367Z,0.52
2018-11-28T18:26:38.944Z,0.16
2018-11-28T18:29:08.564Z,0.10
2018-11-28T18:31:37.916Z,0.45
2018-11-28T18:34:07.328Z,0.48
2018-11-28T18:36:36.728Z,0.39
2018-11-28T18:39:09.337Z,0.34
2018-11-28T18:41:38.719Z,0.54
2018-11-28T18:44:08.286Z,0.26
2018-11-28T18:46:37.799Z,0.16
2018-11-28T18:49:07.155Z,0.07
2018-11-28T18:51:36.464Z,0.06
2018-11-28T18:54:05.873Z,0.54
2018-11-28T18:56:35.504Z,0.49
2018-11-28T18:59:04.831Z,0.37
2018-11-28T19:01:34.217Z,0.17
2018-11-28T19:04:03.609Z,0.28
2018-11-28T19:06:32.935Z,0.12
2018-11-28T19:09:02.274Z,0.05
2018-11-28T19:11:31.684Z,-0.04
2018-11-28T19:14:01.044Z,-0.26
2018-11-28T19:16:30.421Z,-0.39
2018-11-28T19:18:59.845Z,-0.42
2018-11-28T19:21:29.188Z,-0.45
2018-11-28T19:23:58.617Z,-0.47
2018-11-28T19:26:27.931Z,-0.48
2018-11-28T19:28:58.311Z,-0.43
2018-11-28T19:31:27.688Z,-0.28
2018-11-28T19:33:57.084Z,-0.63
2018-11-28T19:36:26.443Z,-0.82
2018-11-28T19:38:55.842Z,-0.93
2018-11-28T19:41:27.341Z,-0.98
2018-11-28T19:43:56.703Z,-1.03
2018-11-28T19:46:26.147Z,-1.08
2018-11-28T19:48:55.516Z,-1.23
2018-11-28T19:51:24.849Z,-1.26
2018-11-28T19:53:55.128Z,-1.30
2018-11-28T19:56:24.556Z,-1.34
2018-11-28T19:58:53.910Z,-1.38
2018-11-28T20:01:23.295Z,-1.38
2018-11-28T20:06:23.334Z,-1.57
2018-11-28T20:08:52.789Z,-1.63
2018-11-28T20:11:22.188Z,-1.64
2018-11-28T20:13:51.586Z,-1.68
2018-11-28T20:16:20.976Z,-1.65
2018-11-28T20:18:50.452Z,-1.71
2018-11-28T20:21:19.823Z,-1.78
2018-11-28T20:23:49.200Z,-1.80
2018-11-28T20:26:18.586Z,-1.89
2018-11-28T20:28:48.011Z,-1.95
2018-11-28T20:31:17.391Z,-2.03
2018-11-28T20:33:46.902Z,-2.07
2018-11-28T20:36:16.290Z,-2.05
2018-11-28T20:38:45.751Z,-2.09
2018-11-28T20:41:15.117Z,-2.14
2018-11-28T20:43:44.486Z,-2.11
2018-11-28T20:46:13.945Z,-2.20
2018-11-28T20:48:43.277Z,-2.26
2018-11-28T20:51:12.591Z,-2.29
2018-11-28T20:53:41.957Z,-2.22
2018-11-28T20:56:17.832Z,-2.24
2018-11-28T20:58:48.272Z,-2.32
2018-11-28T21:01:17.686Z,-2.28
2018-11-28T21:03:47.051Z,-2.31
2018-11-28T21:06:16.426Z,-2.32
2018-11-28T21:08:45.835Z,-2.25
2018-11-28T21:16:12.951Z,-2.15
2018-11-28T21:18:42.321Z,-2.14
2018-11-28T21:21:12.271Z,-2.16
2018-11-28T21:23:41.626Z,-2.11
2018-11-28T21:26:10.984Z,-2.15
2018-11-28T21:28:40.358Z,-2.08
2018-11-28T21:31:09.702Z,-2.08
2018-11-28T21:38:36.677Z,-1.91
2018-11-28T21:41:06.285Z,-1.94
2018-11-28T21:43:35.819Z,-1.97
2018-11-28T21:46:05.349Z,-1.99
2018-11-28T21:48:34.685Z,-2.03
2018-11-28T21:51:04.030Z,-2.05
2018-11-28T21:53:33.366Z,-2.10
2018-11-28T21:56:03.958Z,-2.23
2018-11-28T21:58:33.332Z,-2.23
2018-11-28T22:01:02.865Z,-2.31
2018-11-28T22:03:32.303Z,-2.29
2018-11-28T22:06:01.650Z,-2.34
2018-11-28T22:08:31.012Z,-2.39
2018-11-28T22:11:00.409Z,-2.49
2018-11-28T22:13:29.794Z,-2.52
2018-11-28T22:15:59.844Z,-2.55
2018-11-28T22:18:29.492Z,-2.54
2018-11-28T22:20:59.980Z,-2.57
2018-11-28T22:23:29.324Z,-2.62
2018-11-28T22:25:58.666Z,-2.60
2018-11-28T22:28:28.070Z,-2.64
2018-11-28T22:30:57.492Z,-2.71
2018-11-28T22:33:28.356Z,-2.60
2018-11-28T22:35:57.675Z,-2.58
2018-11-28T22:38:27.010Z,-2.63
2018-11-28T22:40:56.372Z,-2.61
2018-11-28T22:43:25.766Z,-2.57
2018-11-28T22:45:55.091Z,-2.73
2018-11-28T22:48:24.459Z,-2.67
2018-11-28T22:50:53.860Z,-2.55
2018-11-28T22:53:23.232Z,-2.70
2018-11-28T22:55:52.928Z,-2.62
2018-11-28T22:58:22.291Z,-2.75
2018-11-28T23:00:56.946Z,-2.84
2018-11-28T23:03:26.329Z,-2.84
2018-11-28T23:05:55.722Z,-2.87
2018-11-28T23:08:25.056Z,-2.57
2018-11-28T23:10:54.397Z,-2.68
2018-11-28T23:13:25.308Z,-2.53
2018-11-28T23:15:54.668Z,-2.89
2018-11-28T23:18:24.080Z,-2.98
2018-11-28T23:20:53.456Z,-3.05
2018-11-28T23:23:22.847Z,-3.10
2018-11-28T23:25:53.295Z,-3.18
2018-11-28T23:28:22.662Z,-3.20
2018-11-28T23:30:52.040Z,-3.23
2018-11-28T23:33:21.376Z,-3.24
2018-11-28T23:35:50.756Z,-3.27
2018-11-28T23:38:21.661Z,-3.17
2018-11-28T23:40:51.005Z,-3.22
2018-11-28T23:43:20.354Z,-2.96
2018-11-28T23:45:49.713Z,-2.96
2018-11-28T23:48:19.131Z,-3.01
2018-11-28T23:50:48.471Z,-3.29
2018-11-28T23:53:17.876Z,-3.32
2018-11-28T23:55:47.216Z,-3.43
2018-11-28T23:58:16.573Z,-3.55
